createdAt,value
2023-02-21T00:01:18.297Z,5.14
2023-02-21T00:02:40.140Z,5.29
2023-02-21T00:04:03.900Z,5.39
2023-02-21T00:05:25.960Z,5.49
2023-02-21T00:06:47.810Z,5.69
2023-02-21T00:08:09.792Z,5.71
2023-02-21T00:09:31.422Z,5.81
2023-02-21T00:10:52.850Z,6.00
2023-02-21T00:12:15.101Z,6.04
2023-02-21T00:13:36.783Z,6.12
2023-02-21T00:14:58.470Z,6.15
2023-02-21T00:16:20.328Z,6.20
2023-02-21T00:17:42.580Z,6.23
2023-02-21T00:19:04.221Z,6.23
2023-02-21T00:20:26.353Z,6.23
2023-02-21T00:21:48.672Z,6.22
2023-02-21T00:23:12.020Z,6.19
2023-02-21T00:24:36.140Z,6.21
2023-02-21T00:25:58.016Z,6.22
2023-02-21T00:27:19.269Z,6.20
2023-02-21T00:28:41.585Z,6.20
2023-02-21T00:30:03.669Z,6.21
2023-02-21T00:31:25.680Z,6.22
2023-02-21T00:32:47.772Z,6.16
2023-02-21T00:34:09.638Z,6.16
2023-02-21T00:35:31.222Z,6.19
2023-02-21T00:36:53.210Z,6.17
2023-02-21T00:38:14.869Z,6.25
2023-02-21T00:39:36.487Z,6.19
2023-02-21T00:40:58.745Z,6.14
2023-02-21T00:42:20.567Z,6.13
2023-02-21T00:43:49.894Z,6.18
2023-02-21T00:45:11.351Z,6.16
2023-02-21T00:46:33.437Z,6.20
2023-02-21T00:47:55.402Z,6.20
2023-02-21T00:49:17.142Z,6.31
2023-02-21T00:50:39.022Z,6.19
2023-02-21T00:52:00.931Z,6.15
2023-02-21T00:53:22.268Z,6.09
2023-02-21T00:54:43.787Z,6.00
2023-02-21T00:56:05.866Z,5.98
2023-02-21T00:57:27.564Z,5.87
2023-02-21T00:58:50.591Z,5.78
2023-02-21T01:00:12.332Z,5.73
2023-02-21T01:01:34.719Z,5.71
2023-02-21T01:02:56.406Z,5.62
2023-02-21T01:04:18.621Z,5.55
2023-02-21T01:05:40.197Z,5.55
2023-02-21T01:07:02.006Z,5.58
2023-02-21T01:08:23.952Z,5.55
2023-02-21T01:09:45.260Z,5.53
2023-02-21T01:11:07.318Z,5.47
2023-02-21T01:12:28.662Z,5.56
2023-02-21T01:13:49.963Z,5.51
2023-02-21T01:15:11.982Z,5.53
2023-02-21T01:16:33.417Z,5.57
2023-02-21T01:17:55.099Z,5.63
2023-02-21T01:19:17.775Z,5.62
2023-02-21T01:20:39.378Z,5.55
2023-02-21T01:22:00.551Z,5.48
2023-02-21T01:23:22.259Z,5.53
2023-02-21T01:24:43.897Z,5.42
2023-02-21T01:26:05.406Z,5.33
2023-02-21T01:27:27.260Z,5.32
2023-02-21T01:28:49.576Z,5.22
2023-02-21T01:30:11.267Z,5.07
2023-02-21T01:31:40.391Z,5.06
2023-02-21T01:33:01.954Z,5.08
2023-02-21T01:34:23.903Z,5.24
2023-02-21T01:35:45.278Z,5.23
2023-02-21T01:37:06.815Z,5.17
2023-02-21T01:38:28.708Z,5.22
2023-02-21T01:39:50.504Z,5.34
2023-02-21T01:41:11.878Z,5.27
2023-02-21T01:42:33.338Z,5.42
2023-02-21T01:43:54.862Z,5.51
2023-02-21T01:45:42.192Z,5.50
2023-02-21T01:47:03.582Z,5.42
2023-02-21T01:48:33.489Z,5.38
2023-02-21T01:49:58.345Z,5.36
2023-02-21T01:51:22.910Z,5.41
2023-02-21T01:52:44.989Z,5.37
2023-02-21T01:54:07.018Z,5.34
2023-02-21T01:55:29.976Z,5.36
2023-02-21T01:56:52.227Z,5.27
2023-02-21T01:58:14.138Z,5.13
2023-02-21T01:59:39.162Z,5.07
2023-02-21T02:01:00.668Z,5.03
2023-02-21T02:02:47.186Z,4.96
2023-02-21T02:04:09.107Z,4.91
2023-02-21T02:05:33.844Z,4.99
2023-02-21T02:06:55.283Z,4.91
2023-02-21T02:08:17.339Z,4.84
2023-02-21T02:09:39.501Z,4.75
2023-02-21T02:11:02.218Z,4.75
2023-02-21T02:12:39.704Z,4.75
2023-02-21T02:14:18.503Z,4.98
2023-02-21T02:15:45.286Z,5.09
2023-02-21T02:17:07.843Z,5.36
2023-02-21T02:18:46.275Z,5.38
2023-02-21T02:20:16.343Z,5.36
2023-02-21T02:21:57.424Z,5.51
2023-02-21T02:23:38.241Z,5.53
2023-02-21T02:24:46.194Z,5.64
2023-02-21T02:26:09.234Z,5.79
2023-02-21T02:27:31.884Z,5.81
2023-02-21T02:29:03.515Z,5.90
2023-02-21T02:30:34.072Z,5.99
2023-02-21T02:32:06.354Z,6.00
2023-02-21T02:33:38.571Z,6.02
2023-02-21T02:35:19.759Z,6.01
2023-02-21T02:36:30.726Z,5.94
2023-02-21T02:37:45.654Z,5.94
2023-02-21T02:38:52.246Z,5.90
2023-02-21T02:40:01.317Z,5.89
2023-02-21T02:41:12.235Z,5.89
2023-02-21T02:42:39.542Z,5.85
2023-02-21T02:43:58.143Z,5.82
2023-02-21T02:45:06.632Z,5.81
2023-02-21T02:46:35.571Z,5.78
2023-02-21T02:47:40.674Z,5.82
2023-02-21T02:49:01.419Z,5.89
2023-02-21T02:50:07.168Z,5.89
2023-02-21T02:51:14.494Z,5.85
2023-02-21T02:52:17.839Z,5.95
2023-02-21T02:53:25.841Z,5.95
2023-02-21T02:54:29.305Z,5.90
2023-02-21T02:55:38.153Z,5.93
2023-02-21T02:56:41.393Z,5.89
2023-02-21T02:57:49.044Z,5.89
2023-02-21T02:58:54.510Z,5.91
2023-02-21T02:59:57.524Z,6.02
2023-02-21T03:01:13.066Z,6.02
2023-02-21T03:02:33.933Z,6.00
2023-02-21T03:03:45.839Z,6.02
2023-02-21T03:05:01.618Z,5.96
2023-02-21T03:06:24.237Z,5.94
2023-02-21T03:07:51.823Z,5.97
2023-02-21T03:09:19.451Z,6.08
2023-02-21T03:10:55.212Z,6.07
2023-02-21T03:12:34.513Z,6.09
2023-02-21T03:14:11.316Z,6.19
2023-02-21T03:15:46.608Z,6.13
2023-02-21T03:16:55.335Z,6.12
2023-02-21T03:18:04.864Z,6.11
2023-02-21T03:19:12.897Z,6.18
2023-02-21T03:20:17.533Z,6.22
2023-02-21T03:21:31.094Z,6.27
2023-02-21T03:22:35.501Z,6.36
2023-02-21T03:23:40.829Z,6.42
2023-02-21T03:24:48.390Z,6.43
2023-02-21T03:25:53.932Z,6.49
2023-02-21T03:27:07.760Z,6.47
2023-02-21T03:28:11.229Z,6.53
2023-02-21T03:29:15.777Z,6.59
2023-02-21T03:30:20.169Z,6.65
2023-02-21T03:31:29.370Z,6.64
2023-02-21T03:32:38.302Z,6.64
2023-02-21T03:33:41.618Z,6.74
2023-02-21T03:34:44.972Z,6.77
2023-02-21T03:35:48.540Z,6.79
2023-02-21T03:36:51.860Z,6.83
2023-02-21T03:37:54.784Z,6.92
2023-02-21T03:38:57.735Z,6.98
2023-02-21T03:40:01.387Z,7.02
2023-02-21T03:41:04.704Z,7.09
2023-02-21T03:42:07.617Z,7.25
2023-02-21T03:43:10.681Z,7.33
2023-02-21T03:44:13.637Z,7.38
2023-02-21T03:45:17.118Z,7.39
2023-02-21T03:46:20.012Z,7.47
2023-02-21T03:47:22.833Z,7.56
2023-02-21T03:48:31.777Z,7.57
2023-02-21T03:49:35.195Z,7.65
2023-02-21T03:50:38.259Z,7.72
2023-02-21T03:51:41.377Z,7.77
2023-02-21T03:52:44.980Z,7.80
2023-02-21T03:53:47.826Z,7.82
2023-02-21T03:54:50.889Z,7.84
2023-02-21T03:55:54.208Z,7.83
2023-02-21T03:56:57.382Z,7.88
2023-02-21T03:58:00.345Z,7.88
2023-02-21T03:59:03.764Z,7.91
2023-02-21T04:00:07.603Z,7.94
2023-02-21T04:01:16.044Z,7.93
2023-02-21T04:02:20.088Z,8.02
2023-02-21T04:03:24.148Z,8.01
2023-02-21T04:04:27.177Z,8.03
2023-02-21T04:05:30.030Z,8.09
2023-02-21T04:06:32.984Z,8.06
2023-02-21T04:07:35.988Z,8.10
2023-02-21T04:08:40.349Z,8.10
2023-02-21T04:09:43.481Z,8.15
2023-02-21T04:10:51.964Z,8.18
2023-02-21T04:11:55.972Z,8.21
2023-02-21T04:12:59.012Z,8.22
2023-02-21T04:14:02.073Z,8.26
2023-02-21T04:15:05.290Z,8.25
2023-02-21T04:16:08.333Z,8.27
2023-02-21T04:17:11.882Z,8.27
2023-02-21T04:18:15.048Z,8.28
2023-02-21T04:19:18.282Z,8.34
2023-02-21T04:20:21.428Z,8.34
2023-02-21T04:21:24.339Z,8.27
2023-02-21T04:22:27.485Z,8.28
2023-02-21T04:23:30.616Z,8.28
2023-02-21T04:24:33.606Z,8.32
2023-02-21T04:25:36.709Z,8.31
2023-02-21T04:26:39.673Z,8.23
2023-02-21T04:27:42.654Z,8.32
2023-02-21T04:28:45.700Z,8.40
2023-02-21T04:29:49.231Z,8.40
2023-02-21T04:30:52.137Z,8.40
2023-02-21T04:31:56.002Z,8.37
2023-02-21T04:32:59.137Z,8.39
2023-02-21T04:34:11.366Z,8.42
2023-02-21T04:35:14.972Z,8.49
2023-02-21T04:36:18.424Z,8.50
2023-02-21T04:37:21.441Z,8.50
2023-02-21T04:38:24.633Z,8.55
2023-02-21T04:39:27.933Z,8.52
2023-02-21T04:40:30.914Z,8.59
2023-02-21T04:41:34.043Z,8.55
2023-02-21T04:42:37.119Z,8.53
2023-02-21T04:43:43.260Z,8.58
2023-02-21T04:44:55.046Z,8.57
2023-02-21T04:46:02.902Z,8.64
2023-02-21T04:47:05.995Z,8.64
2023-02-21T04:48:09.156Z,8.64
2023-02-21T04:49:13.386Z,8.59
2023-02-21T04:50:16.552Z,8.58
2023-02-21T04:51:23.674Z,8.54
2023-02-21T04:52:26.906Z,8.57
2023-02-21T04:53:29.894Z,8.59
2023-02-21T04:54:32.993Z,8.61
2023-02-21T04:55:35.980Z,8.57
2023-02-21T04:56:40.003Z,8.63
2023-02-21T04:57:43.148Z,8.63
2023-02-21T04:58:46.287Z,8.61
2023-02-21T04:59:49.485Z,8.55
2023-02-21T05:00:53.058Z,8.59
2023-02-21T05:01:56.120Z,8.55
2023-02-21T05:02:59.260Z,8.57
2023-02-21T05:04:03.117Z,8.55
2023-02-21T05:05:06.364Z,8.50
2023-02-21T05:06:09.538Z,8.51
2023-02-21T05:07:12.437Z,8.46
2023-02-21T05:08:15.553Z,8.44
2023-02-21T05:09:18.398Z,8.44
2023-02-21T05:10:21.521Z,8.42
2023-02-21T05:11:25.309Z,8.44
2023-02-21T05:12:28.563Z,8.41
2023-02-21T05:13:31.666Z,8.44
2023-02-21T05:14:34.527Z,8.41
2023-02-21T05:15:37.381Z,8.42
2023-02-21T05:16:40.447Z,8.42
2023-02-21T05:17:43.259Z,8.37
2023-02-21T05:18:48.378Z,8.40
2023-02-21T05:19:52.229Z,8.45
2023-02-21T05:20:55.900Z,8.47
2023-02-21T05:22:01.784Z,8.48
2023-02-21T05:23:13.113Z,8.42
2023-02-21T05:24:16.850Z,8.43
2023-02-21T05:25:23.020Z,8.50
2023-02-21T05:26:31.706Z,8.48
2023-02-21T05:27:34.629Z,8.45
2023-02-21T05:28:39.764Z,8.40
2023-02-21T05:29:46.753Z,8.44
2023-02-21T05:30:50.213Z,8.41
2023-02-21T05:31:53.490Z,8.38
2023-02-21T05:32:56.432Z,8.37
2023-02-21T05:33:59.662Z,8.33
2023-02-21T05:35:02.708Z,8.32
2023-02-21T05:36:06.177Z,8.38
2023-02-21T05:37:09.097Z,8.36
2023-02-21T05:38:12.669Z,8.39
2023-02-21T05:39:16.562Z,8.37
2023-02-21T05:40:19.691Z,8.32
2023-02-21T05:41:23.879Z,8.35
2023-02-21T05:42:27.092Z,8.36
2023-02-21T05:43:34.134Z,8.35
2023-02-21T05:44:37.061Z,8.30
2023-02-21T05:45:40.235Z,8.27
2023-02-21T05:46:43.372Z,8.25
2023-02-21T05:47:46.926Z,8.21
2023-02-21T05:48:50.252Z,8.24
2023-02-21T05:49:53.121Z,8.23
2023-02-21T05:50:56.130Z,8.16
2023-02-21T05:51:59.216Z,8.21
2023-02-21T05:53:02.455Z,8.21
2023-02-21T05:54:08.508Z,8.18
2023-02-21T05:55:12.029Z,8.18
2023-02-21T05:56:16.898Z,8.27
2023-02-21T05:57:20.955Z,8.21
2023-02-21T05:58:25.586Z,8.22
2023-02-21T05:59:28.685Z,8.17
2023-02-21T06:00:32.121Z,8.21
2023-02-21T06:01:36.048Z,8.25
2023-02-21T06:02:39.413Z,8.21
2023-02-21T06:03:42.574Z,8.27
2023-02-21T06:04:45.715Z,8.24
2023-02-21T06:05:48.739Z,8.25
2023-02-21T06:06:51.963Z,8.24
2023-02-21T06:07:54.877Z,8.26
2023-02-21T06:08:57.915Z,8.25
2023-02-21T06:10:00.943Z,8.25
2023-02-21T06:11:04.069Z,8.21
2023-02-21T06:12:07.087Z,8.17
2023-02-21T06:13:10.052Z,8.17
2023-02-21T06:14:22.232Z,8.15
2023-02-21T06:15:25.540Z,8.25
2023-02-21T06:16:32.502Z,8.18
2023-02-21T06:17:37.806Z,8.13
2023-02-21T06:18:41.095Z,8.16
2023-02-21T06:19:44.247Z,8.18
2023-02-21T06:20:47.177Z,8.01
2023-02-21T06:21:50.411Z,7.94
2023-02-21T06:22:53.252Z,7.91
2023-02-21T06:23:56.468Z,7.98
2023-02-21T06:24:59.495Z,7.94
2023-02-21T06:26:02.420Z,7.93
2023-02-21T06:27:05.850Z,7.90
2023-02-21T06:28:09.406Z,7.89
2023-02-21T06:29:13.354Z,7.89
2023-02-21T06:30:16.371Z,7.91
2023-02-21T06:31:21.113Z,7.86
2023-02-21T06:32:24.005Z,7.96
2023-02-21T06:33:27.018Z,7.92
2023-02-21T06:34:29.997Z,8.01
2023-02-21T06:35:33.009Z,8.04
2023-02-21T06:36:36.112Z,8.02
2023-02-21T06:37:39.265Z,8.08
2023-02-21T06:38:45.585Z,8.09
2023-02-21T06:39:48.609Z,8.13
2023-02-21T06:40:51.938Z,8.21
2023-02-21T06:41:55.194Z,8.27
2023-02-21T06:42:58.222Z,8.32
2023-02-21T06:44:01.791Z,8.35
2023-02-21T06:45:06.399Z,8.40
2023-02-21T06:46:09.768Z,8.46
2023-02-21T06:47:13.704Z,8.50
2023-02-21T06:48:17.551Z,8.52
2023-02-21T06:49:21.088Z,8.56
2023-02-21T06:50:24.150Z,8.59
2023-02-21T06:51:30.303Z,8.56
2023-02-21T06:52:33.362Z,8.62
2023-02-21T06:53:36.501Z,8.65
2023-02-21T06:54:39.602Z,8.69
2023-02-21T06:55:42.772Z,8.77
2023-02-21T06:56:45.918Z,8.78
2023-02-21T06:57:49.636Z,8.82
2023-02-21T06:58:52.709Z,8.83
2023-02-21T06:59:55.693Z,8.87
2023-02-21T07:00:58.741Z,8.95
2023-02-21T07:02:03.344Z,8.95
2023-02-21T07:03:06.693Z,8.96
2023-02-21T07:04:09.813Z,9.03
2023-02-21T07:05:13.559Z,9.10
2023-02-21T07:06:17.012Z,9.20
2023-02-21T07:07:20.124Z,9.19
2023-02-21T07:08:26.390Z,9.24
2023-02-21T07:09:29.407Z,9.22
2023-02-21T07:10:32.426Z,9.29
2023-02-21T07:11:36.065Z,9.26
2023-02-21T07:12:40.393Z,9.34
2023-02-21T07:13:49.788Z,9.37
2023-02-21T07:14:52.691Z,9.35
2023-02-21T07:15:55.814Z,9.41
2023-02-21T07:16:58.835Z,9.42
2023-02-21T07:18:01.846Z,9.51
2023-02-21T07:19:06.209Z,9.55
2023-02-21T07:20:09.650Z,9.53
2023-02-21T07:21:15.508Z,9.58
2023-02-21T07:22:20.150Z,9.62
2023-02-21T07:23:23.175Z,9.70
2023-02-21T07:24:26.390Z,9.82
2023-02-21T07:25:30.493Z,9.85
2023-02-21T07:26:33.937Z,9.84
2023-02-21T07:27:37.047Z,9.88
2023-02-21T07:28:41.929Z,9.85
2023-02-21T07:29:47.800Z,9.89
2023-02-21T07:30:50.673Z,9.97
2023-02-21T07:31:54.113Z,9.98
2023-02-21T07:32:56.952Z,10.03
2023-02-21T07:34:00.279Z,10.02
2023-02-21T07:35:03.889Z,10.09
2023-02-21T07:36:07.510Z,10.11
2023-02-21T07:37:11.604Z,10.17
2023-02-21T07:38:29.442Z,10.20
2023-02-21T07:39:32.605Z,10.24
2023-02-21T07:40:36.361Z,10.29
2023-02-21T07:41:39.758Z,10.30
2023-02-21T07:42:43.939Z,10.34
2023-02-21T07:43:46.870Z,10.32
2023-02-21T07:44:49.910Z,10.39
2023-02-21T07:45:53.707Z,10.41
2023-02-21T07:46:58.032Z,10.47
2023-02-21T07:48:00.852Z,10.47
2023-02-21T07:49:03.942Z,10.48
2023-02-21T07:50:07.793Z,10.56
2023-02-21T07:51:11.281Z,10.61
2023-02-21T07:52:14.329Z,10.64
2023-02-21T07:53:17.734Z,10.66
2023-02-21T07:54:20.891Z,10.65
2023-02-21T07:55:23.831Z,10.71
2023-02-21T07:56:27.140Z,10.76
2023-02-21T07:57:30.281Z,10.75
2023-02-21T07:58:37.540Z,10.70
2023-02-21T07:59:40.549Z,10.72
2023-02-21T08:00:43.585Z,10.74
2023-02-21T08:01:48.019Z,10.75
2023-02-21T08:02:52.350Z,10.80
2023-02-21T08:03:55.405Z,10.82
2023-02-21T08:04:58.351Z,10.83
2023-02-21T08:06:01.526Z,10.91
2023-02-21T08:07:05.099Z,10.94
2023-02-21T08:08:09.544Z,10.92
2023-02-21T08:09:12.514Z,10.91
2023-02-21T08:10:22.298Z,10.93
2023-02-21T08:11:25.260Z,10.95
2023-02-21T08:12:28.210Z,11.04
2023-02-21T08:13:31.409Z,11.03
2023-02-21T08:14:34.444Z,11.03
2023-02-21T08:15:37.748Z,11.04
2023-02-21T08:16:40.843Z,11.07
2023-02-21T08:17:44.561Z,11.07
2023-02-21T08:18:51.008Z,11.07
2023-02-21T08:19:54.210Z,11.05
2023-02-21T08:20:57.640Z,11.07
2023-02-21T08:22:00.574Z,11.10
2023-02-21T08:23:03.480Z,11.13
2023-02-21T08:24:06.515Z,11.07
2023-02-21T08:25:11.742Z,11.12
2023-02-21T08:26:14.727Z,11.14
2023-02-21T08:27:18.548Z,11.10
2023-02-21T08:28:21.581Z,11.13
2023-02-21T08:29:24.734Z,11.16
2023-02-21T08:30:27.939Z,11.16
2023-02-21T08:31:31.239Z,11.20
2023-02-21T08:32:35.761Z,11.18
2023-02-21T08:33:38.783Z,11.23
2023-02-21T08:34:41.740Z,11.27
2023-02-21T08:35:44.953Z,11.27
2023-02-21T08:36:47.994Z,11.25
2023-02-21T08:37:51.586Z,11.32
2023-02-21T08:38:55.214Z,11.31
2023-02-21T08:39:59.174Z,11.34
2023-02-21T08:41:03.230Z,11.35
2023-02-21T08:42:06.274Z,11.42
2023-02-21T08:43:09.549Z,11.45
2023-02-21T08:44:18.513Z,11.45
2023-02-21T08:45:23.892Z,11.53
2023-02-21T08:46:26.791Z,11.49
2023-02-21T08:47:29.893Z,11.50
2023-02-21T08:48:33.160Z,11.60
2023-02-21T08:49:40.190Z,11.61
2023-02-21T08:50:43.285Z,11.63
2023-02-21T08:51:47.881Z,11.69
2023-02-21T08:52:51.759Z,11.74
2023-02-21T08:53:55.064Z,11.78
2023-02-21T08:54:58.330Z,11.79
2023-02-21T08:56:01.898Z,11.80
2023-02-21T08:57:04.842Z,11.84
2023-02-21T08:58:07.936Z,11.87
2023-02-21T08:59:11.193Z,11.89
2023-02-21T09:00:15.611Z,11.89
2023-02-21T09:01:18.727Z,11.96
2023-02-21T09:02:28.716Z,11.98
2023-02-21T09:03:31.927Z,11.98
2023-02-21T09:04:36.204Z,12.03
2023-02-21T09:05:39.437Z,12.09
2023-02-21T09:06:42.652Z,12.09
2023-02-21T09:07:49.618Z,12.03
2023-02-21T09:08:52.728Z,12.03
2023-02-21T09:09:55.662Z,12.03
2023-02-21T09:11:01.054Z,12.04
2023-02-21T09:12:08.693Z,12.07
2023-02-21T09:13:11.742Z,12.13
2023-02-21T09:14:16.201Z,12.11
2023-02-21T09:15:20.575Z,12.09
2023-02-21T09:16:23.677Z,12.11
2023-02-21T09:17:26.709Z,12.05
2023-02-21T09:18:31.510Z,12.17
2023-02-21T09:19:35.150Z,12.20
2023-02-21T09:20:42.429Z,12.14
2023-02-21T09:21:49.778Z,12.17
2023-02-21T09:22:53.333Z,12.21
2023-02-21T09:23:57.102Z,12.20
2023-02-21T09:25:01.188Z,12.16
2023-02-21T09:26:04.031Z,12.16
2023-02-21T09:27:07.161Z,12.22
2023-02-21T09:28:10.548Z,12.18
2023-02-21T09:29:13.994Z,12.19
2023-02-21T09:30:24.030Z,12.20
2023-02-21T09:31:27.086Z,12.23
2023-02-21T09:32:30.192Z,12.25
2023-02-21T09:33:33.148Z,12.17
2023-02-21T09:34:36.173Z,12.10
2023-02-21T09:35:39.141Z,12.05
2023-02-21T09:36:42.118Z,12.12
2023-02-21T09:37:46.251Z,12.06
2023-02-21T09:38:49.674Z,12.10
2023-02-21T09:39:53.267Z,12.15
2023-02-21T09:41:01.913Z,12.19
2023-02-21T09:42:05.186Z,12.19
2023-02-21T09:43:16.308Z,12.21
2023-02-21T09:44:23.800Z,12.25
2023-02-21T09:45:32.194Z,12.36
2023-02-21T09:46:45.918Z,12.45
2023-02-21T09:47:55.724Z,12.47
2023-02-21T09:48:59.750Z,12.47
2023-02-21T09:50:13.160Z,12.43
2023-02-21T09:51:17.541Z,12.49
2023-02-21T09:52:31.943Z,12.45
2023-02-21T09:53:42.533Z,12.42
2023-02-21T09:54:52.248Z,12.41
2023-02-21T09:56:01.381Z,12.40
2023-02-21T09:57:11.226Z,12.40
2023-02-21T09:58:20.117Z,12.40
2023-02-21T09:59:23.072Z,12.42
2023-02-21T10:00:38.506Z,12.47
2023-02-21T10:02:03.623Z,12.56
2023-02-21T10:03:15.521Z,12.66
2023-02-21T10:04:39.797Z,12.73
2023-02-21T10:06:07.485Z,12.77
2023-02-21T10:07:28.412Z,12.80
2023-02-21T10:09:21.775Z,12.76
2023-02-21T10:10:38.596Z,12.63
2023-02-21T10:12:11.095Z,12.72
2023-02-21T10:13:29.287Z,12.71
2023-02-21T10:15:15.479Z,12.67
2023-02-21T10:16:35.111Z,12.73
2023-02-21T10:17:56.656Z,12.81
2023-02-21T10:19:26.344Z,12.79
2023-02-21T10:20:38.556Z,12.79
2023-02-21T10:21:45.096Z,12.86
2023-02-21T10:22:51.025Z,12.93
2023-02-21T10:23:58.114Z,12.90
2023-02-21T10:25:13.154Z,12.98
2023-02-21T10:26:26.949Z,13.00
2023-02-21T10:27:33.874Z,13.06
2023-02-21T10:28:38.664Z,13.07
2023-02-21T10:29:49.177Z,13.11
2023-02-21T10:30:57.769Z,13.07
2023-02-21T10:32:04.539Z,13.05
2023-02-21T10:33:08.510Z,13.03
2023-02-21T10:34:26.896Z,13.02
2023-02-21T10:35:29.845Z,13.04
2023-02-21T10:36:32.851Z,13.05
2023-02-21T10:37:47.464Z,13.05
2023-02-21T10:39:20.171Z,12.99
2023-02-21T10:40:43.423Z,12.88
2023-02-21T10:41:47.260Z,12.90
2023-02-21T10:42:57.021Z,12.91
2023-02-21T10:44:05.749Z,12.93
2023-02-21T10:45:12.004Z,12.95
2023-02-21T10:46:28.213Z,12.84
2023-02-21T10:47:48.785Z,12.86
2023-02-21T10:48:59.118Z,12.91
2023-02-21T10:50:07.178Z,13.03
2023-02-21T10:51:18.822Z,13.14
2023-02-21T10:52:22.147Z,13.23
2023-02-21T10:53:32.738Z,13.24
2023-02-21T10:54:35.776Z,13.25
2023-02-21T10:55:38.782Z,13.29
2023-02-21T10:56:42.263Z,13.41
2023-02-21T10:57:50.178Z,13.43
2023-02-21T10:59:05.634Z,13.45
2023-02-21T11:00:10.804Z,13.44
2023-02-21T11:01:30.741Z,13.43
2023-02-21T11:02:37.760Z,13.40
2023-02-21T11:03:52.293Z,13.39
2023-02-21T11:04:56.504Z,13.45
2023-02-21T11:06:00.110Z,13.47
2023-02-21T11:07:11.865Z,13.43
2023-02-21T11:08:14.711Z,13.44
2023-02-21T11:09:39.184Z,13.38
2023-02-21T11:10:45.079Z,13.43
2023-02-21T11:11:47.931Z,13.52
2023-02-21T11:13:16.039Z,13.57
2023-02-21T11:14:18.902Z,13.57
2023-02-21T11:15:22.122Z,13.54
2023-02-21T11:16:25.332Z,13.50
2023-02-21T11:17:29.514Z,13.50
2023-02-21T11:18:32.836Z,13.47
2023-02-21T11:19:57.093Z,13.45
2023-02-21T11:21:15.395Z,13.53
2023-02-21T11:22:38.653Z,13.65
2023-02-21T11:24:05.087Z,13.65
2023-02-21T11:25:26.262Z,13.72
2023-02-21T11:26:38.942Z,13.73
2023-02-21T11:27:42.187Z,13.74
2023-02-21T11:28:47.818Z,13.82
2023-02-21T11:29:53.730Z,13.85
2023-02-21T11:30:59.584Z,13.83
2023-02-21T11:32:21.794Z,13.80
2023-02-21T11:33:25.448Z,13.71
2023-02-21T11:34:30.675Z,13.55
2023-02-21T11:35:55.053Z,13.55
2023-02-21T11:37:05.525Z,13.42
2023-02-21T11:38:29.648Z,13.35
2023-02-21T11:39:34.105Z,13.31
2023-02-21T11:40:49.398Z,13.26
2023-02-21T11:41:56.641Z,13.29
2023-02-21T11:43:20.835Z,13.35
2023-02-21T11:44:36.617Z,13.40
2023-02-21T11:45:49.482Z,13.41
2023-02-21T11:47:28.910Z,13.43
2023-02-21T11:48:39.381Z,13.38
2023-02-21T11:49:53.619Z,13.24
2023-02-21T11:50:57.827Z,13.31
2023-02-21T11:52:06.972Z,13.31
2023-02-21T11:53:15.480Z,13.41
2023-02-21T11:54:22.211Z,13.47
2023-02-21T11:55:26.596Z,13.39
2023-02-21T11:56:38.812Z,13.38
2023-02-21T11:57:55.110Z,13.41
2023-02-21T11:59:19.710Z,13.36
2023-02-21T12:00:35.319Z,13.38
2023-02-21T12:01:57.628Z,13.47
2023-02-21T12:03:36.375Z,13.39
2023-02-21T12:05:16.430Z,13.29
2023-02-21T12:06:52.149Z,13.20
2023-02-21T12:08:13.765Z,13.12
2023-02-21T12:09:36.201Z,13.10
2023-02-21T12:10:50.357Z,13.11
2023-02-21T12:11:53.315Z,13.12
2023-02-21T12:13:17.923Z,13.06
2023-02-21T12:14:38.899Z,13.03
2023-02-21T12:16:11.006Z,12.95
2023-02-21T12:17:59.280Z,12.94
2023-02-21T12:19:12.120Z,12.97
2023-02-21T12:20:34.145Z,12.97
2023-02-21T12:21:55.829Z,13.02
2023-02-21T12:23:28.291Z,13.03
2023-02-21T12:24:56.430Z,13.08
2023-02-21T12:26:18.379Z,13.07
2023-02-21T12:27:34.518Z,13.03
2023-02-21T12:29:02.416Z,12.93
2023-02-21T12:30:17.612Z,12.79
2023-02-21T12:31:34.639Z,12.74
2023-02-21T12:32:54.425Z,12.65
2023-02-21T12:34:23.360Z,12.60
2023-02-21T12:35:53.350Z,12.54
2023-02-21T12:37:38.914Z,12.52
2023-02-21T12:39:12.218Z,12.52
2023-02-21T12:40:50.113Z,12.48
2023-02-21T12:42:20.259Z,12.47
2023-02-21T12:43:53.851Z,12.52
2023-02-21T12:45:13.228Z,12.56
2023-02-21T12:46:38.214Z,12.59
2023-02-21T12:48:01.301Z,12.59
2023-02-21T12:49:18.677Z,12.62
2023-02-21T12:50:27.778Z,12.62
2023-02-21T12:51:40.362Z,12.67
2023-02-21T12:52:58.849Z,12.72
2023-02-21T12:54:28.781Z,12.67
2023-02-21T12:55:40.455Z,12.62
2023-02-21T12:57:25.601Z,12.60
2023-02-21T12:58:39.535Z,12.66
2023-02-21T13:00:00.074Z,12.72
2023-02-21T13:01:12.204Z,12.80
2023-02-21T13:02:48.646Z,12.73
2023-02-21T13:04:04.062Z,12.77
2023-02-21T13:05:14.284Z,12.88
2023-02-21T13:06:23.035Z,12.94
2023-02-21T13:07:42.036Z,13.00
2023-02-21T13:09:07.200Z,13.05
2023-02-21T13:10:16.224Z,13.07
2023-02-21T13:11:34.406Z,13.09
2023-02-21T13:13:05.873Z,12.98
2023-02-21T13:14:17.900Z,12.92
2023-02-21T13:15:27.074Z,12.92
2023-02-21T13:16:32.091Z,12.89
2023-02-21T13:17:35.854Z,12.86
2023-02-21T13:18:59.629Z,12.85
2023-02-21T13:20:10.262Z,12.91
2023-02-21T13:21:38.479Z,12.92
2023-02-21T13:23:19.044Z,12.86
2023-02-21T13:24:21.936Z,12.85
2023-02-21T13:25:42.960Z,12.94
2023-02-21T13:27:25.768Z,12.90
2023-02-21T13:28:36.848Z,12.89
2023-02-21T13:29:43.509Z,12.84
2023-02-21T13:30:52.118Z,12.79
2023-02-21T13:32:14.359Z,12.77
2023-02-21T13:33:46.556Z,12.76
2023-02-21T13:35:05.686Z,12.78
2023-02-21T13:36:43.512Z,12.76
2023-02-21T13:37:50.978Z,12.82
2023-02-21T13:39:16.470Z,12.85
2023-02-21T13:40:32.181Z,12.77
2023-02-21T13:41:40.042Z,12.75
2023-02-21T13:42:43.791Z,12.82
2023-02-21T13:43:52.269Z,12.84
2023-02-21T13:45:22.458Z,12.84
2023-02-21T13:46:31.660Z,12.85
2023-02-21T13:47:57.715Z,12.80
2023-02-21T13:49:38.349Z,12.77
2023-02-21T13:50:47.085Z,12.77
2023-02-21T13:51:53.306Z,12.67
2023-02-21T13:53:32.768Z,12.64
2023-02-21T13:54:35.874Z,12.62
2023-02-21T13:55:40.684Z,12.62
2023-02-21T13:56:44.625Z,12.66
2023-02-21T13:58:11.608Z,12.65
2023-02-21T13:59:26.990Z,12.74
2023-02-21T14:00:30.307Z,12.80
2023-02-21T14:01:33.354Z,12.80
2023-02-21T14:02:36.904Z,12.88
2023-02-21T14:03:40.056Z,12.90
2023-02-21T14:05:00.712Z,13.03
2023-02-21T14:06:10.603Z,13.13
2023-02-21T14:07:13.776Z,13.15
2023-02-21T14:08:27.858Z,13.22
2023-02-21T14:09:39.624Z,13.29
2023-02-21T14:10:45.835Z,13.29
2023-02-21T14:11:52.255Z,13.35
2023-02-21T14:12:59.201Z,13.39
2023-02-21T14:14:32.666Z,13.30
2023-02-21T14:15:43.251Z,13.31
2023-02-21T14:17:06.370Z,13.42
2023-02-21T14:18:32.465Z,13.51
2023-02-21T14:19:42.411Z,13.47
2023-02-21T14:20:49.599Z,13.54
2023-02-21T14:22:04.681Z,13.54
2023-02-21T14:23:07.858Z,13.46
2023-02-21T14:24:11.619Z,13.37
2023-02-21T14:25:24.472Z,13.27
2023-02-21T14:26:55.294Z,13.23
2023-02-21T14:27:58.529Z,13.14
2023-02-21T14:29:13.553Z,13.04
2023-02-21T14:30:26.920Z,12.99
2023-02-21T14:31:51.861Z,12.98
2023-02-21T14:33:02.999Z,12.94
2023-02-21T14:34:09.485Z,12.88
2023-02-21T14:35:26.280Z,12.85
2023-02-21T14:36:31.061Z,12.81
2023-02-21T14:37:46.000Z,12.78
2023-02-21T14:38:54.713Z,12.69
2023-02-21T14:40:09.685Z,12.68
2023-02-21T14:41:19.216Z,12.68
2023-02-21T14:42:30.383Z,12.68
2023-02-21T14:43:58.073Z,12.62
2023-02-21T14:45:14.411Z,12.65
2023-02-21T14:46:42.089Z,12.64
2023-02-21T14:48:16.251Z,12.56
2023-02-21T14:49:25.072Z,12.51
2023-02-21T14:50:46.989Z,12.50
2023-02-21T14:52:20.903Z,12.55
2023-02-21T14:53:42.764Z,12.54
2023-02-21T14:55:12.706Z,12.52
2023-02-21T14:56:16.042Z,12.52
2023-02-21T14:57:35.342Z,12.43
2023-02-21T14:58:50.652Z,12.46
2023-02-21T15:00:33.832Z,12.42
2023-02-21T15:02:10.819Z,12.53
2023-02-21T15:03:21.059Z,12.49
2023-02-21T15:04:29.965Z,12.41
2023-02-21T15:05:48.428Z,12.41
2023-02-21T15:07:10.527Z,12.42
2023-02-21T15:08:17.209Z,12.40
2023-02-21T15:09:22.096Z,12.36
2023-02-21T15:10:31.280Z,12.39
2023-02-21T15:11:38.680Z,12.46
2023-02-21T15:12:48.345Z,12.37
2023-02-21T15:14:35.677Z,12.38
2023-02-21T15:15:43.167Z,12.40
2023-02-21T15:16:47.625Z,12.35
2023-02-21T15:18:04.427Z,12.31
2023-02-21T15:19:29.582Z,12.30
2023-02-21T15:20:36.470Z,12.21
2023-02-21T15:21:39.679Z,12.16
2023-02-21T15:22:43.282Z,12.16
2023-02-21T15:23:49.580Z,12.14
2023-02-21T15:25:17.738Z,12.19
2023-02-21T15:26:27.783Z,12.21
2023-02-21T15:27:30.844Z,12.20
2023-02-21T15:28:37.281Z,12.17
2023-02-21T15:29:41.402Z,12.05
2023-02-21T15:30:58.431Z,12.07
2023-02-21T15:32:01.776Z,12.06
2023-02-21T15:33:19.826Z,11.97
2023-02-21T15:34:43.996Z,11.98
2023-02-21T15:35:58.966Z,11.86
2023-02-21T15:37:11.669Z,11.87